Terminal Aerodrome Forecast
Issued by NWS Albany, NY

Home | Current Version | Previous Version | Text Only | Print | Product List | Glossary On
Versions: 1 2 3 4 5 6 7 8 9 10 11 12 13 14 15 16 17 18 19 20
877
FTUS41 KALY 211457 AAB
TAFGFL
TAF AMD
KGFL 211457Z 2115/2212 19004KT P6SM OVC040
     FM220300 VRB03KT P6SM BKN025
     FM220600 VRB03KT 5SM BR VCSH OVC015
     FM220900 VRB03KT 2SM BR VCSH OVC008=

USA.gov is the U.S. government's official web portal to all federal, state and local government web resources and services.